createdAt,value
2023-05-14T00:06:24.355Z,15.50
2023-05-14T00:21:24.228Z,16.50
2023-05-14T00:36:25.331Z,15.10
2023-05-14T00:51:25.918Z,16.00
2023-05-14T01:06:26.566Z,15.00
2023-05-14T01:21:27.070Z,14.00
2023-05-14T01:36:27.692Z,14.00
2023-05-14T01:51:27.781Z,13.90
2023-05-14T02:06:28.423Z,15.80
2023-05-14T02:21:28.438Z,14.10
2023-05-14T02:36:28.546Z,13.80
2023-05-14T02:51:28.622Z,14.30
2023-05-14T03:06:29.855Z,14.00
2023-05-14T03:21:30.363Z,39.40
2023-05-14T03:36:30.473Z,56.50
2023-05-14T03:51:30.587Z,843.00
2023-05-14T04:06:30.627Z,482.80
2023-05-14T04:21:30.790Z,372.50
2023-05-14T04:36:30.895Z,631.20
2023-05-14T04:51:31.571Z,415.20
2023-05-14T05:06:31.666Z,418.20
2023-05-14T05:21:31.637Z,189.70
2023-05-14T05:36:31.762Z,188.90
2023-05-14T05:51:31.869Z,178.90
2023-05-14T06:06:31.939Z,182.00
2023-05-14T06:21:32.506Z,180.90
2023-05-14T06:36:32.601Z,199.00
2023-05-14T06:51:33.294Z,368.80
2023-05-14T07:06:33.726Z,197.60
2023-05-14T07:21:34.349Z,322.80
2023-05-14T07:36:34.992Z,287.80
2023-05-14T07:51:36.938Z,241.30
2023-05-14T08:06:37.429Z,466.90
2023-05-14T08:21:38.072Z,184.60
2023-05-14T08:36:38.143Z,316.10
2023-05-14T08:51:38.300Z,19.70
2023-05-14T09:06:38.860Z,5.30
2023-05-14T09:21:38.875Z,3.10
2023-05-14T09:36:39.018Z,4.80
2023-05-14T09:51:39.144Z,2.80
2023-05-14T10:06:39.349Z,3.10
2023-05-14T10:21:39.307Z,3.70
2023-05-14T10:36:40.414Z,2.70
2023-05-14T10:51:40.566Z,27.60
2023-05-14T11:06:40.572Z,20.80
2023-05-14T11:21:40.729Z,19.10
2023-05-14T11:36:40.768Z,92.30
2023-05-14T11:51:40.904Z,55.00
2023-05-14T12:06:40.915Z,13.60
2023-05-14T12:21:41.086Z,31.70
2023-05-14T12:36:41.617Z,115.80
2023-05-14T12:51:41.704Z,130.80
2023-05-14T13:06:42.677Z,49.20
2023-05-14T13:21:43.347Z,57.30
2023-05-14T13:36:44.541Z,45.70
2023-05-14T13:51:44.483Z,28.30
2023-05-14T14:06:44.536Z,17.00
2023-05-14T14:21:44.734Z,4.20
2023-05-14T14:36:45.144Z,24.30
2023-05-14T14:51:45.370Z,53.70
2023-05-14T15:06:45.262Z,122.10
2023-05-14T15:21:45.669Z,145.90
2023-05-14T15:36:45.888Z,178.10
2023-05-14T15:51:46.311Z,136.70
2023-05-14T16:06:46.504Z,58.00
2023-05-14T16:21:46.697Z,103.70
2023-05-14T16:36:47.017Z,71.70
2023-05-14T16:51:47.138Z,129.10
2023-05-14T17:06:47.354Z,143.90
2023-05-14T17:21:47.567Z,158.00
2023-05-14T17:36:50.175Z,52.10
2023-05-14T17:51:51.061Z,40.80
2023-05-14T18:06:51.186Z,42.90
2023-05-14T18:21:51.122Z,45.60
2023-05-14T18:36:51.514Z,42.80
2023-05-14T18:51:51.624Z,23.70
2023-05-14T19:06:51.591Z,4.40
2023-05-14T19:21:52.183Z,8.60
2023-05-14T19:36:52.664Z,6.20
2023-05-14T19:51:54.292Z,17.90
2023-05-14T20:06:54.290Z,7.80
2023-05-14T20:21:54.866Z,9.30
2023-05-14T20:36:55.850Z,6.50
2023-05-14T20:51:56.295Z,6.90
2023-05-14T21:06:56.938Z,7.20
2023-05-14T21:21:57.586Z,6.90
2023-05-14T21:36:57.649Z,8.70
2023-05-14T21:51:58.171Z,8.40
2023-05-14T22:06:58.294Z,9.60
2023-05-14T22:21:58.394Z,9.50
2023-05-14T22:36:59.014Z,9.10
2023-05-14T22:51:59.618Z,10.00
2023-05-14T23:06:59.760Z,10.60
2023-05-14T23:21:59.740Z,9.60
2023-05-14T23:37:00.864Z,9.60
2023-05-14T23:52:01.660Z,10.10
